createdAt,value
2019-05-09T00:01:20.447Z,13.60
2019-05-09T00:03:50.520Z,13.60
2019-05-09T00:06:20.452Z,13.50
2019-05-09T00:08:50.553Z,13.50
2019-05-09T00:11:20.376Z,13.50
2019-05-09T00:13:50.471Z,13.50
2019-05-09T00:16:20.312Z,13.50
2019-05-09T00:18:50.041Z,13.50
2019-05-09T00:21:25.093Z,13.50
2019-05-09T00:23:55.040Z,13.50
2019-05-09T00:26:24.985Z,13.50
2019-05-09T00:28:58.736Z,13.50
2019-05-09T00:31:50.674Z,13.50
2019-05-09T00:34:28.486Z,13.50
2019-05-09T00:36:58.376Z,13.40
2019-05-09T00:39:28.296Z,13.40
2019-05-09T00:41:58.274Z,13.40
2019-05-09T00:44:30.218Z,13.40
2019-05-09T00:47:05.976Z,13.30
2019-05-09T00:49:35.778Z,13.30
2019-05-09T00:52:05.618Z,13.30
2019-05-09T00:54:35.475Z,13.30
2019-05-09T00:57:05.338Z,13.20
2019-05-09T00:59:35.039Z,13.20
2019-05-09T01:02:04.939Z,13.20
2019-05-09T01:04:34.907Z,13.20
2019-05-09T01:07:05.597Z,13.20
2019-05-09T01:09:35.544Z,13.20
2019-05-09T01:12:05.458Z,13.20
2019-05-09T01:14:35.252Z,13.30
2019-05-09T01:17:05.170Z,13.30
2019-05-09T01:19:35.026Z,13.30
2019-05-09T01:22:04.771Z,13.30
2019-05-09T01:24:34.454Z,13.30
2019-05-09T01:27:04.391Z,13.30
2019-05-09T01:29:34.124Z,13.30
2019-05-09T01:32:07.975Z,13.20
2019-05-09T01:34:38.108Z,13.20
2019-05-09T01:37:09.435Z,13.20
2019-05-09T01:39:39.312Z,13.20
2019-05-09T01:42:09.186Z,13.10
2019-05-09T01:44:39.150Z,13.10
2019-05-09T01:47:09.192Z,13.00
2019-05-09T01:49:38.991Z,13.10
2019-05-09T01:52:08.891Z,13.10
2019-05-09T01:54:40.700Z,13.10
2019-05-09T01:57:10.588Z,13.10
2019-05-09T01:59:40.809Z,13.10
2019-05-09T02:02:10.604Z,13.10
2019-05-09T02:04:40.647Z,13.10
2019-05-09T02:07:12.682Z,13.10
2019-05-09T02:09:43.418Z,13.10
2019-05-09T02:12:14.119Z,13.10
2019-05-09T02:15:07.564Z,13.10
2019-05-09T02:18:00.689Z,13.10
2019-05-09T02:20:20.165Z,13.10
2019-05-09T02:22:50.065Z,13.10
2019-05-09T02:25:20.829Z,13.10
2019-05-09T02:27:52.093Z,13.10
2019-05-09T02:30:25.369Z,13.10
2019-05-09T02:32:54.679Z,13.10
2019-05-09T02:35:24.783Z,13.10
2019-05-09T02:37:54.521Z,13.10
2019-05-09T02:40:24.746Z,13.20
2019-05-09T02:42:54.773Z,13.20
2019-05-09T02:45:28.395Z,13.10
2019-05-09T02:47:59.000Z,13.10
2019-05-09T02:50:28.936Z,13.10
2019-05-09T02:52:59.156Z,13.10
2019-05-09T02:55:29.108Z,13.10
2019-05-09T02:57:59.609Z,13.10
2019-05-09T03:00:41.711Z,13.10
2019-05-09T03:03:20.027Z,13.10
2019-05-09T03:05:51.371Z,13.10
2019-05-09T03:08:21.277Z,13.00
2019-05-09T03:10:51.179Z,13.00
2019-05-09T03:13:20.937Z,12.90
2019-05-09T03:15:52.759Z,13.00
2019-05-09T03:18:22.540Z,12.90
2019-05-09T03:21:11.496Z,12.90
2019-05-09T03:23:44.120Z,12.90
2019-05-09T03:26:19.379Z,12.90
2019-05-09T03:29:22.954Z,12.80
2019-05-09T03:31:53.494Z,12.80
2019-05-09T03:34:23.343Z,12.80
2019-05-09T03:36:53.083Z,12.80
2019-05-09T03:39:22.915Z,12.80
2019-05-09T03:41:52.797Z,12.80
2019-05-09T03:44:23.196Z,12.80
2019-05-09T03:47:30.294Z,12.80
2019-05-09T03:50:14.389Z,12.80
2019-05-09T03:52:44.143Z,12.80
2019-05-09T03:55:21.839Z,12.80
2019-05-09T03:57:59.340Z,12.80
2019-05-09T04:00:30.201Z,12.80
2019-05-09T04:03:00.024Z,12.80
2019-05-09T04:05:29.755Z,12.80
2019-05-09T04:08:18.258Z,12.80
2019-05-09T04:10:50.250Z,12.80
2019-05-09T04:13:23.461Z,12.90
2019-05-09T04:15:53.237Z,12.90
2019-05-09T04:18:23.159Z,13.00
2019-05-09T04:20:53.204Z,13.10
2019-05-09T04:23:22.986Z,13.20
2019-05-09T04:26:02.395Z,13.30
2019-05-09T04:28:33.124Z,13.40
2019-05-09T04:31:02.935Z,13.50
2019-05-09T04:33:32.683Z,13.60
2019-05-09T04:36:02.493Z,13.70
2019-05-09T04:38:32.290Z,13.80
2019-05-09T04:41:02.063Z,13.80
2019-05-09T04:43:36.719Z,13.80
2019-05-09T04:46:05.080Z,13.90
2019-05-09T04:48:37.348Z,13.90
2019-05-09T04:51:07.844Z,13.90
2019-05-09T04:53:39.880Z,13.90
2019-05-09T04:56:29.665Z,13.90
2019-05-09T04:58:59.533Z,13.90
2019-05-09T05:01:51.614Z,13.90
2019-05-09T05:04:23.833Z,13.90
2019-05-09T05:06:55.302Z,14.10
2019-05-09T05:09:27.743Z,14.30
2019-05-09T05:11:58.988Z,14.40
2019-05-09T05:14:30.598Z,14.50
2019-05-09T05:17:07.398Z,14.50
2019-05-09T05:19:35.305Z,14.40
2019-05-09T05:22:11.902Z,14.40
2019-05-09T05:24:48.552Z,14.30
2019-05-09T05:27:18.850Z,14.20
2019-05-09T05:29:49.017Z,14.20
2019-05-09T05:32:28.051Z,14.20
2019-05-09T05:35:07.553Z,14.20
2019-05-09T05:37:38.655Z,14.20
2019-05-09T05:40:11.682Z,14.40
2019-05-09T05:42:42.592Z,14.50
2019-05-09T05:45:12.876Z,14.60
2019-05-09T05:47:50.017Z,14.60
2019-05-09T05:50:23.011Z,14.50
2019-05-09T05:52:52.800Z,14.60
2019-05-09T05:55:22.510Z,14.60
2019-05-09T05:57:52.348Z,14.60
2019-05-09T06:00:23.789Z,14.70
2019-05-09T06:02:58.544Z,14.90
2019-05-09T06:05:28.000Z,15.00
2019-05-09T06:07:57.876Z,15.00
2019-05-09T06:10:29.048Z,15.00
2019-05-09T06:12:59.037Z,15.00
2019-05-09T06:15:29.142Z,15.00
2019-05-09T06:17:58.841Z,14.90
2019-05-09T06:20:28.671Z,14.90
2019-05-09T06:22:58.456Z,14.80
2019-05-09T06:25:30.407Z,14.80
2019-05-09T06:27:59.729Z,14.90
2019-05-09T06:30:33.982Z,15.00
2019-05-09T06:33:08.899Z,15.10
2019-05-09T06:35:50.397Z,15.40
2019-05-09T06:38:20.582Z,15.60
2019-05-09T06:40:50.592Z,16.00
2019-05-09T06:43:22.607Z,16.10
2019-05-09T06:46:10.296Z,16.20
2019-05-09T06:48:40.196Z,16.00
2019-05-09T06:51:10.162Z,15.80
2019-05-09T06:53:39.856Z,15.70
2019-05-09T06:56:09.636Z,15.80
2019-05-09T06:58:40.276Z,15.80
2019-05-09T07:01:23.230Z,15.80
2019-05-09T07:03:57.589Z,15.70
2019-05-09T07:06:32.117Z,15.60
2019-05-09T07:09:19.665Z,15.60
2019-05-09T07:11:49.555Z,15.70
2019-05-09T07:14:32.989Z,15.70
2019-05-09T07:17:02.461Z,15.80
2019-05-09T07:19:32.197Z,16.10
2019-05-09T07:22:08.854Z,16.40
2019-05-09T07:25:00.879Z,16.70
2019-05-09T07:27:28.574Z,16.70
2019-05-09T07:30:00.409Z,16.50
2019-05-09T07:32:32.939Z,16.40
2019-05-09T07:35:02.953Z,16.40
2019-05-09T07:37:32.777Z,16.40
2019-05-09T07:40:02.583Z,16.50
2019-05-09T07:42:32.541Z,16.60
2019-05-09T07:45:02.437Z,16.60
2019-05-09T07:47:32.148Z,16.60
2019-05-09T07:50:01.915Z,16.50
2019-05-09T07:52:32.704Z,16.60
2019-05-09T07:55:03.677Z,16.70
2019-05-09T07:57:33.520Z,16.70
2019-05-09T08:00:03.547Z,16.70
2019-05-09T08:02:33.531Z,16.80
2019-05-09T08:05:03.386Z,16.90
2019-05-09T08:07:33.237Z,17.00
2019-05-09T08:10:03.169Z,17.10
2019-05-09T08:12:32.923Z,17.20
2019-05-09T08:15:13.332Z,17.30
2019-05-09T08:17:33.982Z,17.30
2019-05-09T08:20:04.331Z,17.30
2019-05-09T08:22:34.103Z,17.40
2019-05-09T08:25:03.993Z,17.40
2019-05-09T08:27:33.691Z,17.30
2019-05-09T08:30:03.345Z,17.20
2019-05-09T08:32:33.116Z,17.20
2019-05-09T08:35:03.052Z,17.30
2019-05-09T08:37:32.921Z,17.40
2019-05-09T08:40:02.623Z,17.50
2019-05-09T08:42:32.308Z,17.50
2019-05-09T08:45:02.016Z,17.50
2019-05-09T08:47:32.954Z,17.40
2019-05-09T08:50:11.160Z,17.30
2019-05-09T08:52:40.968Z,17.10
2019-05-09T08:55:10.926Z,17.10
2019-05-09T08:57:40.626Z,17.00
2019-05-09T09:00:10.728Z,17.00
2019-05-09T09:02:40.498Z,17.10
2019-05-09T09:05:10.244Z,17.30
2019-05-09T09:07:39.953Z,17.60
2019-05-09T09:10:10.447Z,17.90
2019-05-09T09:12:40.172Z,18.30
2019-05-09T09:15:10.521Z,18.50
2019-05-09T09:17:40.224Z,18.50
2019-05-09T09:20:10.316Z,18.50
2019-05-09T09:22:39.980Z,18.60
2019-05-09T09:25:09.817Z,18.70
2019-05-09T09:27:39.750Z,18.70
2019-05-09T09:30:20.232Z,18.90
2019-05-09T09:32:41.146Z,19.20
2019-05-09T09:35:10.966Z,19.30
2019-05-09T09:37:48.365Z,19.30
2019-05-09T09:40:12.294Z,19.30
2019-05-09T09:42:42.021Z,19.30
2019-05-09T09:45:11.851Z,19.00
2019-05-09T09:47:41.578Z,18.70
2019-05-09T09:50:11.645Z,18.70
2019-05-09T09:52:41.400Z,18.80
2019-05-09T09:55:11.532Z,18.90
2019-05-09T09:57:41.340Z,18.70
2019-05-09T10:00:30.469Z,18.60
2019-05-09T10:03:00.164Z,18.50
2019-05-09T10:05:29.945Z,18.40
2019-05-09T10:07:59.669Z,18.50
2019-05-09T10:10:34.226Z,18.70
2019-05-09T10:13:04.512Z,18.90
2019-05-09T10:15:40.451Z,19.00
2019-05-09T10:18:18.289Z,19.00
2019-05-09T10:20:58.582Z,19.00
2019-05-09T10:23:28.514Z,18.90
2019-05-09T10:25:58.343Z,18.90
2019-05-09T10:28:30.129Z,18.80
2019-05-09T10:30:59.450Z,18.60
2019-05-09T10:33:29.224Z,18.50
2019-05-09T10:36:04.210Z,18.30
2019-05-09T10:38:30.316Z,18.20
2019-05-09T10:41:01.679Z,18.10
2019-05-09T10:43:53.981Z,18.20
2019-05-09T10:46:56.932Z,18.30
2019-05-09T10:49:19.810Z,18.30
2019-05-09T10:51:49.494Z,18.70
2019-05-09T10:54:19.193Z,19.00
2019-05-09T10:56:48.984Z,19.60
2019-05-09T10:59:18.711Z,20.20
2019-05-09T11:01:49.636Z,20.60
2019-05-09T11:04:19.653Z,20.50
2019-05-09T11:06:49.339Z,20.30
2019-05-09T11:09:19.048Z,20.20
2019-05-09T11:11:48.838Z,20.00
2019-05-09T11:14:32.837Z,20.00
2019-05-09T11:17:06.394Z,20.00
2019-05-09T11:19:21.442Z,20.00
2019-05-09T11:21:51.145Z,20.00
2019-05-09T11:24:20.961Z,19.90
2019-05-09T11:26:50.820Z,19.50
2019-05-09T11:29:20.549Z,18.70
2019-05-09T11:31:50.316Z,18.00
2019-05-09T11:34:20.044Z,17.60
2019-05-09T11:36:50.082Z,17.30
2019-05-09T11:39:35.296Z,17.00
2019-05-09T11:41:51.413Z,16.80
2019-05-09T11:44:21.099Z,16.70
2019-05-09T11:46:50.807Z,16.60
2019-05-09T11:49:20.505Z,16.60
2019-05-09T11:51:50.197Z,16.70
2019-05-09T11:54:19.883Z,16.90
2019-05-09T11:56:49.732Z,17.10
2019-05-09T11:59:19.405Z,17.50
2019-05-09T12:01:49.108Z,17.90
2019-05-09T12:04:19.002Z,18.30
2019-05-09T12:06:49.486Z,18.50
2019-05-09T12:09:19.365Z,18.70
2019-05-09T12:11:49.047Z,18.90
2019-05-09T12:14:18.732Z,19.00
2019-05-09T12:16:48.444Z,19.30
2019-05-09T12:19:18.246Z,19.50
2019-05-09T12:21:48.598Z,19.80
2019-05-09T12:24:18.630Z,19.90
2019-05-09T12:26:48.568Z,20.00
2019-05-09T12:29:19.551Z,20.10
2019-05-09T12:31:50.810Z,20.10
2019-05-09T12:34:20.516Z,20.20
2019-05-09T12:36:50.350Z,20.20
2019-05-09T12:39:20.064Z,20.30
2019-05-09T12:41:49.829Z,20.10
2019-05-09T12:44:19.549Z,19.90
2019-05-09T12:46:49.321Z,19.80
2019-05-09T12:49:19.327Z,19.60
2019-05-09T12:51:49.312Z,19.50
2019-05-09T12:54:19.276Z,19.50
2019-05-09T12:56:49.145Z,19.70
2019-05-09T12:59:19.029Z,19.90
2019-05-09T13:01:49.360Z,20.00
2019-05-09T13:04:19.677Z,20.20
2019-05-09T13:06:49.472Z,20.50
2019-05-09T13:09:19.288Z,20.60
2019-05-09T13:11:49.132Z,20.60
2019-05-09T13:14:19.508Z,20.60
2019-05-09T13:17:11.410Z,20.60
2019-05-09T13:19:44.112Z,20.60
2019-05-09T13:22:14.055Z,20.50
2019-05-09T13:24:43.728Z,20.20
2019-05-09T13:27:13.579Z,20.00
2019-05-09T13:29:44.023Z,19.80
2019-05-09T13:32:13.881Z,19.80
2019-05-09T13:34:43.814Z,19.60
2019-05-09T13:37:13.976Z,19.30
2019-05-09T13:39:43.677Z,19.00
2019-05-09T13:42:13.468Z,19.10
2019-05-09T13:44:43.358Z,19.20
2019-05-09T13:47:13.196Z,19.30
2019-05-09T13:49:42.895Z,19.20
2019-05-09T13:52:12.646Z,19.20
2019-05-09T13:54:42.554Z,19.60
2019-05-09T13:57:12.225Z,19.80
2019-05-09T13:59:41.942Z,20.00
2019-05-09T14:02:11.611Z,20.30
2019-05-09T14:04:41.477Z,20.50
2019-05-09T14:07:11.222Z,20.60
2019-05-09T14:09:40.936Z,20.70
2019-05-09T14:12:10.651Z,20.60
2019-05-09T14:14:40.459Z,20.60
2019-05-09T14:17:13.739Z,20.50
2019-05-09T14:19:46.509Z,20.20
2019-05-09T14:22:13.092Z,19.90
2019-05-09T14:24:42.789Z,19.80
2019-05-09T14:27:12.659Z,19.60
2019-05-09T14:29:42.356Z,19.50
2019-05-09T14:32:12.051Z,19.50
2019-05-09T14:34:42.753Z,19.40
2019-05-09T14:37:13.044Z,19.30
2019-05-09T14:39:54.911Z,19.30
2019-05-09T14:42:14.098Z,19.40
2019-05-09T14:44:43.858Z,19.60
2019-05-09T14:47:13.570Z,20.00
2019-05-09T14:49:44.836Z,20.50
2019-05-09T14:52:14.850Z,20.80
2019-05-09T14:54:44.925Z,21.00
2019-05-09T14:57:14.681Z,20.70
2019-05-09T14:59:44.480Z,20.20
2019-05-09T15:02:14.351Z,19.80
2019-05-09T15:04:44.192Z,19.70
2019-05-09T15:07:14.240Z,19.80
2019-05-09T15:09:43.918Z,20.00
2019-05-09T15:12:13.701Z,20.20
2019-05-09T15:14:43.433Z,20.40
2019-05-09T15:17:13.130Z,20.50
2019-05-09T15:19:56.393Z,20.50
2019-05-09T15:22:14.316Z,20.60
2019-05-09T15:24:44.966Z,20.70
2019-05-09T15:27:17.709Z,20.70
2019-05-09T15:29:48.646Z,20.60
2019-05-09T15:32:18.522Z,20.40
2019-05-09T15:34:48.421Z,20.20
2019-05-09T15:37:18.798Z,20.10
2019-05-09T15:39:48.688Z,20.00
2019-05-09T15:42:18.692Z,20.10
2019-05-09T15:44:48.496Z,20.20
2019-05-09T15:47:22.739Z,20.20
2019-05-09T15:49:52.519Z,20.10
2019-05-09T15:52:22.311Z,20.00
2019-05-09T15:54:52.085Z,19.80
2019-05-09T15:57:21.901Z,19.60
2019-05-09T15:59:53.705Z,19.40
2019-05-09T16:02:24.900Z,19.30
2019-05-09T16:04:54.691Z,19.20
2019-05-09T16:07:25.641Z,19.30
2019-05-09T16:10:00.217Z,19.40
2019-05-09T16:12:30.115Z,19.70
2019-05-09T16:15:01.886Z,19.70
2019-05-09T16:17:32.031Z,19.70
2019-05-09T16:20:01.895Z,19.50
2019-05-09T16:22:31.630Z,19.40
2019-05-09T16:25:01.496Z,19.20
2019-05-09T16:27:31.421Z,19.10
2019-05-09T16:30:01.159Z,19.10
2019-05-09T16:32:30.883Z,19.10
2019-05-09T16:35:00.679Z,19.10
2019-05-09T16:37:49.792Z,19.00
2019-05-09T16:40:01.782Z,18.90
2019-05-09T16:42:31.583Z,18.80
2019-05-09T16:45:01.375Z,18.80
2019-05-09T16:47:31.226Z,18.70
2019-05-09T16:50:01.152Z,18.70
2019-05-09T16:52:30.873Z,18.70
2019-05-09T16:55:14.018Z,18.60
2019-05-09T16:57:43.709Z,18.50
2019-05-09T17:00:18.346Z,18.30
2019-05-09T17:02:48.370Z,17.90
2019-05-09T17:05:18.155Z,17.70
2019-05-09T17:07:47.910Z,17.70
2019-05-09T17:10:17.893Z,17.60
2019-05-09T17:12:47.922Z,17.60
2019-05-09T17:15:19.405Z,17.70
2019-05-09T17:17:49.109Z,17.80
2019-05-09T17:20:22.181Z,17.60
2019-05-09T17:23:14.441Z,17.60
2019-05-09T17:25:40.529Z,17.60
2019-05-09T17:28:10.438Z,17.50
2019-05-09T17:30:41.276Z,17.30
2019-05-09T17:33:11.197Z,17.00
2019-05-09T17:35:41.140Z,16.80
2019-05-09T17:38:11.097Z,16.60
2019-05-09T17:40:40.783Z,16.50
2019-05-09T17:43:10.621Z,16.40
2019-05-09T17:45:42.213Z,16.40
2019-05-09T17:48:11.933Z,16.40
2019-05-09T17:50:41.720Z,16.30
2019-05-09T17:53:11.894Z,16.40
2019-05-09T17:55:41.687Z,16.40
2019-05-09T17:58:25.986Z,16.40
2019-05-09T18:00:43.962Z,16.50
2019-05-09T18:03:13.895Z,16.40
2019-05-09T18:05:43.740Z,16.40
2019-05-09T18:08:13.621Z,16.40
2019-05-09T18:10:43.397Z,16.40
2019-05-09T18:13:13.202Z,16.30
2019-05-09T18:15:43.062Z,16.30
2019-05-09T18:18:12.909Z,16.30
2019-05-09T18:20:42.878Z,16.30
2019-05-09T18:23:13.681Z,16.30
2019-05-09T18:25:43.672Z,16.20
2019-05-09T18:28:13.461Z,16.20
2019-05-09T18:30:43.353Z,16.10
2019-05-09T18:33:27.729Z,16.10
2019-05-09T18:35:57.683Z,16.10
2019-05-09T18:38:31.751Z,16.00
2019-05-09T18:41:01.721Z,16.10
2019-05-09T18:43:31.716Z,16.10
2019-05-09T18:46:01.786Z,16.10
2019-05-09T18:48:31.833Z,16.10
2019-05-09T18:51:02.145Z,16.10
2019-05-09T18:53:32.155Z,16.10
2019-05-09T18:56:02.200Z,16.10
2019-05-09T18:58:32.105Z,16.10
2019-05-09T19:01:01.932Z,16.00
2019-05-09T19:03:31.956Z,15.90
2019-05-09T19:06:01.828Z,15.80
2019-05-09T19:08:31.606Z,15.60
2019-05-09T19:11:01.391Z,15.60
2019-05-09T19:13:31.199Z,15.50
2019-05-09T19:16:26.171Z,15.40
2019-05-09T19:19:15.172Z,15.40
2019-05-09T19:21:51.708Z,15.40
2019-05-09T19:24:21.601Z,15.30
2019-05-09T19:26:52.450Z,15.30
2019-05-09T19:29:22.203Z,15.20
2019-05-09T19:31:51.983Z,15.10
2019-05-09T19:34:21.885Z,15.10
2019-05-09T19:36:51.679Z,15.10
2019-05-09T19:39:21.672Z,15.10
2019-05-09T19:41:51.401Z,15.00
2019-05-09T19:44:21.116Z,15.00
2019-05-09T19:46:50.937Z,15.00
2019-05-09T19:49:22.084Z,15.00
2019-05-09T19:51:54.454Z,14.90
2019-05-09T19:54:26.992Z,14.90
2019-05-09T19:56:57.098Z,14.90
2019-05-09T19:59:28.850Z,14.80
2019-05-09T20:01:58.961Z,14.80
2019-05-09T20:04:30.156Z,14.80
2019-05-09T20:07:01.503Z,14.80
2019-05-09T20:09:37.668Z,14.80
2019-05-09T20:12:24.494Z,14.70
2019-05-09T20:14:54.361Z,14.70
2019-05-09T20:17:24.100Z,14.70
2019-05-09T20:19:53.905Z,14.60
2019-05-09T20:22:23.740Z,14.60
2019-05-09T20:24:53.507Z,14.70
2019-05-09T20:27:23.544Z,14.60
2019-05-09T20:29:56.388Z,14.60
2019-05-09T20:32:26.275Z,14.60
2019-05-09T20:34:56.261Z,14.60
2019-05-09T20:37:26.202Z,14.50
2019-05-09T20:39:56.204Z,14.50
2019-05-09T20:42:26.081Z,14.50
2019-05-09T20:44:56.026Z,14.50
2019-05-09T20:47:26.036Z,14.50
2019-05-09T20:49:56.050Z,14.40
2019-05-09T20:52:27.139Z,14.40
2019-05-09T20:54:57.117Z,14.30
2019-05-09T20:57:27.162Z,14.30
2019-05-09T20:59:57.100Z,14.20
2019-05-09T21:02:27.139Z,14.20
2019-05-09T21:04:57.100Z,14.10
2019-05-09T21:07:27.128Z,14.10
2019-05-09T21:09:57.118Z,14.00
2019-05-09T21:12:27.285Z,14.10
2019-05-09T21:14:57.409Z,14.10
2019-05-09T21:17:27.485Z,14.00
2019-05-09T21:20:00.915Z,14.00
2019-05-09T21:22:30.922Z,14.00
2019-05-09T21:25:00.933Z,13.90
2019-05-09T21:27:30.829Z,13.90
2019-05-09T21:30:00.725Z,13.80
2019-05-09T21:32:30.990Z,13.70
2019-05-09T21:35:00.697Z,13.70
2019-05-09T21:37:30.405Z,13.70
2019-05-09T21:40:00.199Z,13.60
2019-05-09T21:42:31.297Z,13.60
2019-05-09T21:45:01.026Z,13.60
2019-05-09T21:47:30.904Z,13.50
2019-05-09T21:50:00.607Z,13.50
2019-05-09T21:52:30.458Z,13.50
2019-05-09T21:55:00.263Z,13.40
2019-05-09T21:57:30.395Z,13.40
2019-05-09T22:00:00.141Z,13.40
2019-05-09T22:02:30.735Z,13.40
2019-05-09T22:05:00.613Z,13.30
2019-05-09T22:07:30.577Z,13.30
2019-05-09T22:10:00.405Z,13.30
2019-05-09T22:12:30.267Z,13.30
2019-05-09T22:15:03.688Z,13.20
2019-05-09T22:17:38.916Z,13.20
2019-05-09T22:20:09.663Z,13.20
2019-05-09T22:22:39.607Z,13.20
2019-05-09T22:25:09.771Z,13.20
2019-05-09T22:27:39.679Z,13.10
2019-05-09T22:30:10.413Z,13.10
2019-05-09T22:32:43.195Z,13.10
2019-05-09T22:35:13.494Z,13.00
2019-05-09T22:37:43.224Z,13.00
2019-05-09T22:40:13.295Z,12.90
2019-05-09T22:42:43.347Z,12.90
2019-05-09T22:45:18.041Z,12.80
2019-05-09T22:47:48.151Z,12.80
2019-05-09T22:50:18.240Z,12.80
2019-05-09T22:52:47.938Z,12.70
2019-05-09T22:55:18.352Z,12.70
2019-05-09T22:57:48.129Z,12.60
2019-05-09T23:00:18.737Z,12.60
2019-05-09T23:02:48.457Z,12.50
2019-05-09T23:05:18.277Z,12.50
2019-05-09T23:07:48.058Z,12.40
2019-05-09T23:10:17.819Z,12.40
2019-05-09T23:12:47.630Z,12.40
2019-05-09T23:15:18.896Z,12.30
2019-05-09T23:17:48.681Z,12.30
2019-05-09T23:20:37.771Z,12.30
2019-05-09T23:23:34.213Z,12.20
2019-05-09T23:26:04.152Z,12.20
2019-05-09T23:28:33.897Z,12.10
2019-05-09T23:31:06.660Z,12.10
2019-05-09T23:33:39.173Z,12.10
2019-05-09T23:36:09.247Z,12.10
2019-05-09T23:38:56.751Z,12.10
2019-05-09T23:41:38.070Z,12.10
2019-05-09T23:44:07.908Z,12.10
2019-05-09T23:46:37.848Z,12.10
2019-05-09T23:49:07.615Z,12.20
2019-05-09T23:51:45.118Z,12.20
2019-05-09T23:54:45.424Z,12.30
2019-05-09T23:57:24.614Z,12.30
